Aviation Digital Data Service (ADDS)

Output produced by METARs form (1047 UTC 28 September 2021)
found at http://www.aviationweather.gov/metar/data/
 
Forecast for: KGRK (GRAY/FT HOOD , TX, US)
Text: TAF KGRK 280800Z 2808/2914 16006KT 9999 SCT040 SCT100 QNH2978INS
Forecast period: 0800 to 2000 UTC 28 September 2021
Forecast type: FROM: standard forecast or significant change
Winds: from the SSE (160 degrees) at 7 MPH (6 knots; 3.1 m/s)
Visibility: 6 or more miles (10+ km)
Ceiling: at least 12,000 feet AGL
Clouds: scattered clouds at 4000 feet AGL
scattered clouds at 10000 feet AGL
Weather: no significant weather forecast for this period
Text: BECMG 2820/2821 14006KT 9999 SKC QNH2976INS
Forecast period: 2000 UTC 28 September 2021 to 0300 UTC 29 September 2021
Forecast type: BECOMING: Conditions expected to become as follows by 2100 UTC 28 September 2021
Winds: from the SE (140 degrees) at 7 MPH (6 knots; 3.1 m/s)
Visibility: 6 or more miles (10+ km)
Clouds: clear skies
Weather: no significant weather forecast for this period
Text: BECMG 2903/2904 VRB06KT 9999 FEW010 SCT030 QNH2983INS
Forecast period: 0300 to 0900 UTC 29 September 2021
Forecast type: BECOMING: Conditions expected to become as follows by 0400 UTC 29 September 2021
Winds: variable direction winds at 7 MPH (6 knots; 3.1 m/s)
Visibility: 6 or more miles (10+ km)
Ceiling: at least 12,000 feet AGL
Clouds: few clouds at 1000 feet AGL
scattered clouds at 3000 feet AGL
Weather: no significant weather forecast for this period
Text: BECMG 2909/2910 18006KT 9999 BKN010 QNH2983INS TX33/2820Z TN19/2812Z
Forecast period: 0900 to 1400 UTC 29 September 2021
Forecast type: BECOMING: Conditions expected to become as follows by 1000 UTC 29 September 2021
Winds: from the S (180 degrees) at 7 MPH (6 knots; 3.1 m/s)
Visibility: 6 or more miles (10+ km)
Ceiling: 1000 feet AGL
Clouds: broken clouds at 1000 feet AGL
Weather: no significant weather forecast for this period

Forecast for: KACT (WACO , TX, US)
Text: KACT 280905Z 2809/2906 17007KT P6SM BKN250
Forecast period: 0900 UTC 28 September 2021 to 0300 UTC 29 September 2021
Forecast type: FROM: standard forecast or significant change
Winds: from the S (170 degrees) at 8 MPH (7 knots; 3.6 m/s)
Visibility: 6 or more miles (10+ km)
Ceiling: 25000 feet AGL
Clouds: broken clouds at 25000 feet AGL
Weather: no significant weather forecast for this period
Text: FM290300 15010KT P6SM VCTS OVC090CB
Forecast period: 0300 to 0600 UTC 29 September 2021
Forecast type: FROM: standard forecast or significant change
Winds: from the SSE (150 degrees) at 12 MPH (10 knots; 5.1 m/s)
Visibility: 6 or more miles (10+ km)
Ceiling: 9000 feet AGL
Clouds: overcast cloud deck at 9000 feet AGL
Weather: VCTS  (thunderstorm in vicinity)